sensor_id;sensor_type;location;lat;lon;timestamp;P1;durP1;ratioP1;P2;durP2;ratioP2
34471;SDS011;20710;49.976;19.836;2024-02-23T00:06:36;1.60;;;1.20;;
34471;SDS011;20710;49.976;19.836;2024-02-23T00:12:38;1.70;;;1.20;;
34471;SDS011;20710;49.976;19.836;2024-02-23T00:18:45;1.40;;;1.00;;
34471;SDS011;20710;49.976;19.836;2024-02-23T00:25:01;1.50;;;1.10;;
34471;SDS011;20710;49.976;19.836;2024-02-23T00:31:06;2.20;;;1.40;;
34471;SDS011;20710;49.976;19.836;2024-02-23T00:37:08;1.80;;;1.30;;
34471;SDS011;20710;49.976;19.836;2024-02-23T00:43:18;2.90;;;1.50;;
34471;SDS011;20710;49.976;19.836;2024-02-23T00:49:33;2.30;;;1.30;;
34471;SDS011;20710;49.976;19.836;2024-02-23T00:55:52;3.10;;;1.50;;
34471;SDS011;20710;49.976;19.836;2024-02-23T01:01:54;5.10;;;2.10;;
34471;SDS011;20710;49.976;19.836;2024-02-23T01:07:57;3.30;;;1.80;;
34471;SDS011;20710;49.976;19.836;2024-02-23T01:14:00;4.90;;;2.10;;
34471;SDS011;20710;49.976;19.836;2024-02-23T01:20:04;2.60;;;1.90;;
34471;SDS011;20710;49.976;19.836;2024-02-23T01:26:13;5.10;;;2.70;;
34471;SDS011;20710;49.976;19.836;2024-02-23T01:32:15;3.90;;;2.50;;
34471;SDS011;20710;49.976;19.836;2024-02-23T01:38:21;4.10;;;2.40;;
34471;SDS011;20710;49.976;19.836;2024-02-23T01:44:26;9.10;;;3.20;;
34471;SDS011;20710;49.976;19.836;2024-02-23T01:50:33;4.30;;;2.40;;
34471;SDS011;20710;49.976;19.836;2024-02-23T01:56:40;5.40;;;2.40;;
34471;SDS011;20710;49.976;19.836;2024-02-23T02:02:43;6.10;;;3.00;;
34471;SDS011;20710;49.976;19.836;2024-02-23T02:09:15;4.30;;;2.10;;
34471;SDS011;20710;49.976;19.836;2024-02-23T02:15:19;4.40;;;2.50;;
34471;SDS011;20710;49.976;19.836;2024-02-23T02:21:31;4.40;;;2.60;;
34471;SDS011;20710;49.976;19.836;2024-02-23T02:27:34;3.40;;;2.30;;
34471;SDS011;20710;49.976;19.836;2024-02-23T02:33:36;4.10;;;2.60;;
34471;SDS011;20710;49.976;19.836;2024-02-23T02:39:38;4.40;;;2.80;;
34471;SDS011;20710;49.976;19.836;2024-02-23T02:45:49;3.30;;;2.50;;
34471;SDS011;20710;49.976;19.836;2024-02-23T02:51:51;3.60;;;2.50;;
34471;SDS011;20710;49.976;19.836;2024-02-23T02:57:54;3.50;;;2.80;;
34471;SDS011;20710;49.976;19.836;2024-02-23T03:03:55;4.10;;;2.30;;
34471;SDS011;20710;49.976;19.836;2024-02-23T03:10:11;3.60;;;2.20;;
34471;SDS011;20710;49.976;19.836;2024-02-23T03:16:17;4.00;;;2.70;;
34471;SDS011;20710;49.976;19.836;2024-02-23T03:22:22;5.40;;;3.20;;
34471;SDS011;20710;49.976;19.836;2024-02-23T03:28:24;4.10;;;2.80;;
34471;SDS011;20710;49.976;19.836;2024-02-23T03:34:46;9.60;;;3.10;;
34471;SDS011;20710;49.976;19.836;2024-02-23T03:41:02;4.20;;;2.40;;
34471;SDS011;20710;49.976;19.836;2024-02-23T03:47:05;6.60;;;2.80;;
34471;SDS011;20710;49.976;19.836;2024-02-23T03:53:07;4.10;;;2.30;;
34471;SDS011;20710;49.976;19.836;2024-02-23T03:59:09;3.40;;;2.10;;
34471;SDS011;20710;49.976;19.836;2024-02-23T04:05:11;5.10;;;2.30;;
34471;SDS011;20710;49.976;19.836;2024-02-23T04:11:13;5.80;;;3.10;;
34471;SDS011;20710;49.976;19.836;2024-02-23T04:17:15;10.90;;;4.90;;
34471;SDS011;20710;49.976;19.836;2024-02-23T04:23:18;9.60;;;4.50;;
34471;SDS011;20710;49.976;19.836;2024-02-23T04:29:19;8.50;;;4.70;;
34471;SDS011;20710;49.976;19.836;2024-02-23T04:35:21;9.00;;;5.60;;
34471;SDS011;20710;49.976;19.836;2024-02-23T04:41:23;11.10;;;6.70;;
34471;SDS011;20710;49.976;19.836;2024-02-23T04:47:27;10.50;;;7.40;;
34471;SDS011;20710;49.976;19.836;2024-02-23T04:53:43;11.90;;;6.70;;
34471;SDS011;20710;49.976;19.836;2024-02-23T04:59:48;9.00;;;5.80;;
34471;SDS011;20710;49.976;19.836;2024-02-23T05:05:49;14.00;;;5.80;;
34471;SDS011;20710;49.976;19.836;2024-02-23T05:11:55;13.10;;;6.70;;
34471;SDS011;20710;49.976;19.836;2024-02-23T05:17:57;13.70;;;7.60;;
34471;SDS011;20710;49.976;19.836;2024-02-23T05:23:59;11.70;;;6.90;;
34471;SDS011;20710;49.976;19.836;2024-02-23T05:30:01;15.00;;;7.60;;
34471;SDS011;20710;49.976;19.836;2024-02-23T05:36:03;14.70;;;7.00;;
34471;SDS011;20710;49.976;19.836;2024-02-23T05:42:05;14.10;;;8.10;;
34471;SDS011;20710;49.976;19.836;2024-02-23T05:48:07;14.30;;;8.60;;
34471;SDS011;20710;49.976;19.836;2024-02-23T05:54:11;14.20;;;9.00;;
34471;SDS011;20710;49.976;19.836;2024-02-23T06:00:15;11.10;;;7.10;;
34471;SDS011;20710;49.976;19.836;2024-02-23T06:06:41;11.30;;;7.00;;
34471;SDS011;20710;49.976;19.836;2024-02-23T06:13:10;10.20;;;7.10;;
34471;SDS011;20710;49.976;19.836;2024-02-23T06:19:16;13.50;;;7.70;;
34471;SDS011;20710;49.976;19.836;2024-02-23T06:25:18;12.40;;;8.40;;
34471;SDS011;20710;49.976;19.836;2024-02-23T06:31:20;10.70;;;7.60;;
34471;SDS011;20710;49.976;19.836;2024-02-23T06:37:22;11.10;;;7.10;;
34471;SDS011;20710;49.976;19.836;2024-02-23T06:43:26;11.70;;;7.50;;
34471;SDS011;20710;49.976;19.836;2024-02-23T06:49:28;10.00;;;7.10;;
34471;SDS011;20710;49.976;19.836;2024-02-23T06:55:35;15.40;;;10.10;;
34471;SDS011;20710;49.976;19.836;2024-02-23T07:01:47;15.40;;;11.40;;
34471;SDS011;20710;49.976;19.836;2024-02-23T07:07:49;11.20;;;8.60;;
34471;SDS011;20710;49.976;19.836;2024-02-23T07:14:02;14.50;;;10.70;;
34471;SDS011;20710;49.976;19.836;2024-02-23T07:20:04;18.40;;;11.60;;
34471;SDS011;20710;49.976;19.836;2024-02-23T07:26:09;30.20;;;17.80;;
34471;SDS011;20710;49.976;19.836;2024-02-23T07:32:11;32.20;;;20.00;;
34471;SDS011;20710;49.976;19.836;2024-02-23T07:38:13;39.20;;;25.80;;
34471;SDS011;20710;49.976;19.836;2024-02-23T07:44:14;36.70;;;23.70;;
34471;SDS011;20710;49.976;19.836;2024-02-23T07:50:16;20.70;;;14.20;;
34471;SDS011;20710;49.976;19.836;2024-02-23T07:56:19;19.70;;;12.00;;
34471;SDS011;20710;49.976;19.836;2024-02-23T08:02:23;20.00;;;13.10;;
34471;SDS011;20710;49.976;19.836;2024-02-23T08:09:04;21.10;;;12.80;;
34471;SDS011;20710;49.976;19.836;2024-02-23T08:15:06;20.80;;;13.80;;
34471;SDS011;20710;49.976;19.836;2024-02-23T08:21:09;21.80;;;14.40;;
34471;SDS011;20710;49.976;19.836;2024-02-23T08:27:12;20.90;;;14.20;;
34471;SDS011;20710;49.976;19.836;2024-02-23T08:33:14;15.50;;;10.10;;
34471;SDS011;20710;49.976;19.836;2024-02-23T08:39:15;14.30;;;9.10;;
34471;SDS011;20710;49.976;19.836;2024-02-23T08:45:17;13.90;;;7.90;;
34471;SDS011;20710;49.976;19.836;2024-02-23T08:51:19;13.50;;;7.20;;
34471;SDS011;20710;49.976;19.836;2024-02-23T08:57:21;12.60;;;7.10;;
34471;SDS011;20710;49.976;19.836;2024-02-23T09:03:25;8.80;;;5.40;;
34471;SDS011;20710;49.976;19.836;2024-02-23T09:09:28;8.10;;;5.10;;
34471;SDS011;20710;49.976;19.836;2024-02-23T09:15:30;11.60;;;4.70;;
34471;SDS011;20710;49.976;19.836;2024-02-23T09:21:32;9.60;;;5.40;;
34471;SDS011;20710;49.976;19.836;2024-02-23T09:27:34;9.90;;;5.20;;
34471;SDS011;20710;49.976;19.836;2024-02-23T09:34:00;7.60;;;4.60;;
34471;SDS011;20710;49.976;19.836;2024-02-23T09:40:02;6.40;;;4.30;;
34471;SDS011;20710;49.976;19.836;2024-02-23T09:46:04;5.80;;;4.10;;
34471;SDS011;20710;49.976;19.836;2024-02-23T09:52:09;6.30;;;4.20;;
34471;SDS011;20710;49.976;19.836;2024-02-23T09:58:12;9.80;;;5.10;;
34471;SDS011;20710;49.976;19.836;2024-02-23T10:04:15;11.40;;;5.60;;
34471;SDS011;20710;49.976;19.836;2024-02-23T10:10:22;10.00;;;6.30;;
34471;SDS011;20710;49.976;19.836;2024-02-23T10:16:43;11.30;;;7.40;;
34471;SDS011;20710;49.976;19.836;2024-02-23T10:22:47;10.40;;;6.50;;
34471;SDS011;20710;49.976;19.836;2024-02-23T10:28:50;14.80;;;7.60;;
34471;SDS011;20710;49.976;19.836;2024-02-23T10:34:53;9.60;;;5.40;;
34471;SDS011;20710;49.976;19.836;2024-02-23T10:41:06;10.40;;;5.30;;
34471;SDS011;20710;49.976;19.836;2024-02-23T10:47:10;7.90;;;5.00;;
34471;SDS011;20710;49.976;19.836;2024-02-23T10:53:13;8.60;;;4.70;;
34471;SDS011;20710;49.976;19.836;2024-02-23T10:59:19;5.80;;;3.70;;
34471;SDS011;20710;49.976;19.836;2024-02-23T11:05:21;6.80;;;3.60;;
34471;SDS011;20710;49.976;19.836;2024-02-23T11:11:24;5.40;;;3.20;;
34471;SDS011;20710;49.976;19.836;2024-02-23T11:17:26;5.50;;;3.10;;
34471;SDS011;20710;49.976;19.836;2024-02-23T11:23:44;5.50;;;3.20;;
34471;SDS011;20710;49.976;19.836;2024-02-23T11:29:52;4.80;;;3.10;;
34471;SDS011;20710;49.976;19.836;2024-02-23T11:36:07;5.50;;;3.30;;
34471;SDS011;20710;49.976;19.836;2024-02-23T11:42:10;6.10;;;3.20;;
34471;SDS011;20710;49.976;19.836;2024-02-23T11:48:11;7.20;;;3.80;;
34471;SDS011;20710;49.976;19.836;2024-02-23T11:54:13;5.50;;;3.50;;
34471;SDS011;20710;49.976;19.836;2024-02-23T12:00:17;5.90;;;3.30;;
34471;SDS011;20710;49.976;19.836;2024-02-23T12:06:21;11.60;;;4.50;;
34471;SDS011;20710;49.976;19.836;2024-02-23T12:12:23;17.20;;;5.60;;
34471;SDS011;20710;49.976;19.836;2024-02-23T12:18:26;7.40;;;4.00;;
34471;SDS011;20710;49.976;19.836;2024-02-23T12:24:43;5.70;;;3.50;;
34471;SDS011;20710;49.976;19.836;2024-02-23T12:31:31;7.50;;;3.50;;
34471;SDS011;20710;49.976;19.836;2024-02-23T12:37:44;8.20;;;4.40;;
34471;SDS011;20710;49.976;19.836;2024-02-23T12:43:53;9.90;;;4.30;;
34471;SDS011;20710;49.976;19.836;2024-02-23T12:50:15;9.50;;;4.30;;
34471;SDS011;20710;49.976;19.836;2024-02-23T12:56:20;6.10;;;3.70;;
34471;SDS011;20710;49.976;19.836;2024-02-23T13:02:22;7.30;;;4.50;;
34471;SDS011;20710;49.976;19.836;2024-02-23T13:08:24;11.00;;;4.60;;
34471;SDS011;20710;49.976;19.836;2024-02-23T13:14:27;7.60;;;4.30;;
34471;SDS011;20710;49.976;19.836;2024-02-23T13:26:57;11.70;;;5.30;;
34471;SDS011;20710;49.976;19.836;2024-02-23T13:33:04;8.50;;;4.90;;
34471;SDS011;20710;49.976;19.836;2024-02-23T13:39:07;9.60;;;5.10;;
34471;SDS011;20710;49.976;19.836;2024-02-23T13:45:10;6.20;;;3.30;;
34471;SDS011;20710;49.976;19.836;2024-02-23T13:51:15;4.00;;;2.40;;
34471;SDS011;20710;49.976;19.836;2024-02-23T13:57:21;6.30;;;3.40;;
34471;SDS011;20710;49.976;19.836;2024-02-23T14:04:06;10.10;;;3.60;;
34471;SDS011;20710;49.976;19.836;2024-02-23T14:10:08;20.40;;;8.40;;
34471;SDS011;20710;49.976;19.836;2024-02-23T14:16:11;10.50;;;5.20;;
34471;SDS011;20710;49.976;19.836;2024-02-23T14:22:13;6.40;;;2.70;;
34471;SDS011;20710;49.976;19.836;2024-02-23T14:28:15;4.50;;;2.20;;
34471;SDS011;20710;49.976;19.836;2024-02-23T14:40:44;3.00;;;1.70;;
34471;SDS011;20710;49.976;19.836;2024-02-23T14:46:46;5.70;;;2.80;;
34471;SDS011;20710;49.976;19.836;2024-02-23T14:53:08;6.10;;;3.30;;
34471;SDS011;20710;49.976;19.836;2024-02-23T14:59:10;8.20;;;3.70;;
34471;SDS011;20710;49.976;19.836;2024-02-23T15:05:12;15.90;;;8.20;;
34471;SDS011;20710;49.976;19.836;2024-02-23T15:11:36;16.50;;;10.00;;
34471;SDS011;20710;49.976;19.836;2024-02-23T15:17:37;9.10;;;4.80;;
34471;SDS011;20710;49.976;19.836;2024-02-23T15:23:40;6.60;;;3.80;;
34471;SDS011;20710;49.976;19.836;2024-02-23T15:29:45;12.20;;;6.00;;
34471;SDS011;20710;49.976;19.836;2024-02-23T15:35:47;18.20;;;9.50;;
34471;SDS011;20710;49.976;19.836;2024-02-23T15:41:49;22.80;;;11.90;;
34471;SDS011;20710;49.976;19.836;2024-02-23T15:48:11;21.30;;;11.00;;
34471;SDS011;20710;49.976;19.836;2024-02-23T15:54:37;19.70;;;9.70;;
34471;SDS011;20710;49.976;19.836;2024-02-23T16:00:43;18.50;;;8.40;;
34471;SDS011;20710;49.976;19.836;2024-02-23T16:06:45;14.50;;;8.50;;
34471;SDS011;20710;49.976;19.836;2024-02-23T16:13:08;15.40;;;7.80;;
34471;SDS011;20710;49.976;19.836;2024-02-23T16:19:10;12.20;;;6.50;;
34471;SDS011;20710;49.976;19.836;2024-02-23T16:25:13;12.70;;;7.80;;
34471;SDS011;20710;49.976;19.836;2024-02-23T16:31:15;15.80;;;9.30;;
34471;SDS011;20710;49.976;19.836;2024-02-23T16:37:16;16.10;;;10.40;;
34471;SDS011;20710;49.976;19.836;2024-02-23T16:43:19;17.90;;;10.30;;
34471;SDS011;20710;49.976;19.836;2024-02-23T16:49:33;23.90;;;13.80;;
34471;SDS011;20710;49.976;19.836;2024-02-23T16:55:36;31.40;;;21.30;;
34471;SDS011;20710;49.976;19.836;2024-02-23T17:01:37;29.40;;;18.20;;
34471;SDS011;20710;49.976;19.836;2024-02-23T17:08:00;27.00;;;18.30;;
34471;SDS011;20710;49.976;19.836;2024-02-23T17:14:02;26.60;;;18.60;;
34471;SDS011;20710;49.976;19.836;2024-02-23T17:20:14;35.80;;;20.30;;
34471;SDS011;20710;49.976;19.836;2024-02-23T17:26:15;29.10;;;19.00;;
34471;SDS011;20710;49.976;19.836;2024-02-23T17:32:20;35.20;;;22.50;;
34471;SDS011;20710;49.976;19.836;2024-02-23T17:38:22;42.70;;;26.40;;
34471;SDS011;20710;49.976;19.836;2024-02-23T17:44:34;33.80;;;22.00;;
34471;SDS011;20710;49.976;19.836;2024-02-23T17:50:40;39.40;;;23.70;;
34471;SDS011;20710;49.976;19.836;2024-02-23T17:56:46;39.30;;;24.70;;
34471;SDS011;20710;49.976;19.836;2024-02-23T18:02:53;43.50;;;25.80;;
34471;SDS011;20710;49.976;19.836;2024-02-23T18:08:55;48.20;;;26.40;;
34471;SDS011;20710;49.976;19.836;2024-02-23T18:15:11;68.80;;;32.60;;
34471;SDS011;20710;49.976;19.836;2024-02-23T18:21:13;46.20;;;25.50;;
34471;SDS011;20710;49.976;19.836;2024-02-23T18:27:18;40.30;;;22.50;;
34471;SDS011;20710;49.976;19.836;2024-02-23T18:33:21;37.90;;;22.00;;
34471;SDS011;20710;49.976;19.836;2024-02-23T18:39:23;41.10;;;22.80;;
34471;SDS011;20710;49.976;19.836;2024-02-23T18:45:25;36.50;;;21.30;;
34471;SDS011;20710;49.976;19.836;2024-02-23T18:51:41;27.20;;;16.00;;
34471;SDS011;20710;49.976;19.836;2024-02-23T18:57:43;36.10;;;19.60;;
34471;SDS011;20710;49.976;19.836;2024-02-23T19:03:47;39.00;;;19.60;;
34471;SDS011;20710;49.976;19.836;2024-02-23T19:09:49;43.70;;;22.40;;
34471;SDS011;20710;49.976;19.836;2024-02-23T19:16:00;58.20;;;27.70;;
34471;SDS011;20710;49.976;19.836;2024-02-23T19:22:02;41.90;;;22.10;;
34471;SDS011;20710;49.976;19.836;2024-02-23T19:28:04;40.80;;;22.60;;
34471;SDS011;20710;49.976;19.836;2024-02-23T19:34:06;46.00;;;24.30;;
34471;SDS011;20710;49.976;19.836;2024-02-23T19:40:11;44.10;;;21.20;;
34471;SDS011;20710;49.976;19.836;2024-02-23T19:46:17;41.40;;;22.10;;
34471;SDS011;20710;49.976;19.836;2024-02-23T19:52:20;31.90;;;16.60;;
34471;SDS011;20710;49.976;19.836;2024-02-23T19:59:04;22.60;;;12.80;;
34471;SDS011;20710;49.976;19.836;2024-02-23T20:05:06;19.70;;;11.00;;
34471;SDS011;20710;49.976;19.836;2024-02-23T20:11:08;20.20;;;11.30;;
34471;SDS011;20710;49.976;19.836;2024-02-23T20:17:14;14.50;;;8.60;;
34471;SDS011;20710;49.976;19.836;2024-02-23T20:23:17;17.40;;;9.10;;
34471;SDS011;20710;49.976;19.836;2024-02-23T20:29:28;19.80;;;11.10;;
34471;SDS011;20710;49.976;19.836;2024-02-23T20:35:35;15.50;;;9.20;;
34471;SDS011;20710;49.976;19.836;2024-02-23T20:41:53;17.80;;;10.40;;
34471;SDS011;20710;49.976;19.836;2024-02-23T20:47:55;18.00;;;10.30;;
34471;SDS011;20710;49.976;19.836;2024-02-23T20:53:56;20.00;;;11.80;;
34471;SDS011;20710;49.976;19.836;2024-02-23T20:59:58;25.10;;;12.30;;
34471;SDS011;20710;49.976;19.836;2024-02-23T21:06:05;30.70;;;15.70;;
34471;SDS011;20710;49.976;19.836;2024-02-23T21:12:07;27.20;;;14.10;;
34471;SDS011;20710;49.976;19.836;2024-02-23T21:18:28;37.90;;;16.90;;
34471;SDS011;20710;49.976;19.836;2024-02-23T21:24:32;37.50;;;18.50;;
34471;SDS011;20710;49.976;19.836;2024-02-23T21:30:55;30.70;;;16.30;;
34471;SDS011;20710;49.976;19.836;2024-02-23T21:37:04;30.60;;;15.30;;
34471;SDS011;20710;49.976;19.836;2024-02-23T21:43:11;30.80;;;16.90;;
34471;SDS011;20710;49.976;19.836;2024-02-23T21:49:37;31.00;;;16.90;;
34471;SDS011;20710;49.976;19.836;2024-02-23T22:02:23;31.00;;;15.30;;
34471;SDS011;20710;49.976;19.836;2024-02-23T22:08:32;28.90;;;13.60;;
34471;SDS011;20710;49.976;19.836;2024-02-23T22:14:34;22.10;;;11.40;;
34471;SDS011;20710;49.976;19.836;2024-02-23T22:20:35;21.00;;;11.30;;
34471;SDS011;20710;49.976;19.836;2024-02-23T22:26:38;19.40;;;10.50;;
34471;SDS011;20710;49.976;19.836;2024-02-23T22:32:40;19.00;;;10.80;;
34471;SDS011;20710;49.976;19.836;2024-02-23T22:38:42;21.40;;;11.30;;
34471;SDS011;20710;49.976;19.836;2024-02-23T22:44:44;18.70;;;10.00;;
34471;SDS011;20710;49.976;19.836;2024-02-23T22:50:47;14.80;;;8.90;;
34471;SDS011;20710;49.976;19.836;2024-02-23T22:56:48;13.90;;;7.40;;
34471;SDS011;20710;49.976;19.836;2024-02-23T23:02:50;13.00;;;6.30;;
34471;SDS011;20710;49.976;19.836;2024-02-23T23:08:58;11.70;;;6.20;;
34471;SDS011;20710;49.976;19.836;2024-02-23T23:15:10;11.20;;;6.20;;
34471;SDS011;20710;49.976;19.836;2024-02-23T23:21:32;17.80;;;8.60;;
34471;SDS011;20710;49.976;19.836;2024-02-23T23:27:55;12.10;;;6.50;;
34471;SDS011;20710;49.976;19.836;2024-02-23T23:33:58;11.80;;;6.40;;
34471;SDS011;20710;49.976;19.836;2024-02-23T23:40:03;16.10;;;8.00;;
34471;SDS011;20710;49.976;19.836;2024-02-23T23:46:05;16.00;;;6.80;;
34471;SDS011;20710;49.976;19.836;2024-02-23T23:52:07;15.40;;;8.20;;
34471;SDS011;20710;49.976;19.836;2024-02-23T23:58:10;10.90;;;6.10;;
